createdAt,value
2023-01-03T00:02:27.804Z,3.00
2023-01-03T00:05:16.442Z,3.30
2023-01-03T00:08:06.566Z,2.37
2023-01-03T00:10:55.152Z,3.10
2023-01-03T00:13:43.181Z,2.60
2023-01-03T00:16:31.739Z,2.87
2023-01-03T00:19:21.083Z,3.30
2023-01-03T00:22:10.303Z,2.90
2023-01-03T00:25:00.161Z,2.97
2023-01-03T00:27:48.656Z,3.00
2023-01-03T00:30:37.106Z,2.70
2023-01-03T00:33:25.603Z,2.40
2023-01-03T00:36:14.114Z,2.47
2023-01-03T00:39:02.717Z,2.33
2023-01-03T00:41:52.853Z,2.53
2023-01-03T00:44:41.375Z,2.30
2023-01-03T00:47:29.929Z,3.03
2023-01-03T00:50:18.462Z,2.20
2023-01-03T00:53:06.971Z,3.07
2023-01-03T00:55:55.836Z,2.47
2023-01-03T00:58:45.940Z,2.30
2023-01-03T01:01:45.940Z,2.20
2023-01-03T01:04:35.493Z,2.10
2023-01-03T01:07:23.890Z,2.10
2023-01-03T01:10:12.420Z,2.10
2023-01-03T01:13:00.846Z,1.93
2023-01-03T01:15:50.749Z,1.87
2023-01-03T01:18:40.061Z,1.93
2023-01-03T01:21:29.888Z,1.90
2023-01-03T01:24:18.590Z,1.77
2023-01-03T01:27:07.187Z,1.90
2023-01-03T01:29:55.597Z,2.13
2023-01-03T01:32:45.415Z,1.93
2023-01-03T01:35:33.864Z,1.70
2023-01-03T01:38:22.292Z,2.23
2023-01-03T01:41:13.145Z,1.93
2023-01-03T01:44:18.996Z,2.23
2023-01-03T01:47:08.891Z,2.30
2023-01-03T01:50:05.200Z,2.00
2023-01-03T01:52:57.140Z,2.60
2023-01-03T01:55:48.234Z,2.07
2023-01-03T01:58:38.405Z,2.20
2023-01-03T02:01:27.240Z,2.20
2023-01-03T02:04:19.167Z,2.10
2023-01-03T02:07:09.091Z,2.37
2023-01-03T02:09:58.551Z,2.73
2023-01-03T02:13:07.052Z,2.03
2023-01-03T02:16:08.084Z,2.00
2023-01-03T02:19:05.378Z,2.57
2023-01-03T02:22:39.266Z,2.70
2023-01-03T02:26:05.972Z,3.07
2023-01-03T02:29:20.969Z,2.53
2023-01-03T02:32:13.762Z,2.63
2023-01-03T02:35:07.095Z,2.20
2023-01-03T02:37:58.699Z,2.20
2023-01-03T02:40:50.882Z,2.37
2023-01-03T02:43:46.461Z,2.17
2023-01-03T02:46:39.078Z,2.77
2023-01-03T02:49:33.502Z,2.10
2023-01-03T02:52:25.324Z,2.10
2023-01-03T02:55:17.293Z,2.20
2023-01-03T02:58:08.846Z,2.23
2023-01-03T03:00:59.885Z,2.47
2023-01-03T03:03:49.272Z,2.20
2023-01-03T03:06:42.916Z,2.10
2023-01-03T03:09:31.461Z,2.97
2023-01-03T03:12:37.411Z,2.20
2023-01-03T03:15:31.586Z,2.40
2023-01-03T03:18:23.362Z,2.30
2023-01-03T03:21:30.878Z,2.73
2023-01-03T03:24:40.729Z,2.20
2023-01-03T03:27:48.792Z,2.60
2023-01-03T03:30:39.644Z,2.40
2023-01-03T03:33:29.644Z,5.20
2023-01-03T03:36:20.775Z,2.47
2023-01-03T03:39:31.070Z,2.97
2023-01-03T03:42:42.212Z,2.67
2023-01-03T03:45:38.429Z,2.90
2023-01-03T03:48:30.769Z,2.30
2023-01-03T03:51:21.288Z,2.70
2023-01-03T03:54:13.239Z,2.67
2023-01-03T03:57:07.036Z,3.57
2023-01-03T03:59:59.596Z,3.53
2023-01-03T04:02:48.582Z,3.23
2023-01-03T04:05:40.974Z,4.30
2023-01-03T04:08:29.425Z,3.60
2023-01-03T04:11:18.024Z,3.47
2023-01-03T04:14:06.452Z,3.10
2023-01-03T04:16:56.515Z,2.63
2023-01-03T04:19:45.000Z,2.57
2023-01-03T04:22:33.510Z,2.77
2023-01-03T04:25:22.016Z,2.80
2023-01-03T04:28:10.502Z,2.90
2023-01-03T04:30:58.971Z,3.10
2023-01-03T04:33:48.783Z,3.10
2023-01-03T04:36:37.229Z,3.33
2023-01-03T04:39:25.835Z,2.97
2023-01-03T04:42:31.568Z,3.60
2023-01-03T04:45:20.047Z,3.30
2023-01-03T04:48:08.587Z,3.30
2023-01-03T04:51:00.502Z,2.97
2023-01-03T04:53:48.989Z,3.57
2023-01-03T04:56:38.636Z,3.83
2023-01-03T04:59:27.146Z,3.43
2023-01-03T05:02:15.782Z,3.60
2023-01-03T05:05:04.798Z,3.27
2023-01-03T05:07:54.675Z,3.47
2023-01-03T05:10:43.145Z,3.27
2023-01-03T05:13:31.686Z,3.20
2023-01-03T05:16:20.365Z,3.30
2023-01-03T05:19:08.842Z,2.93
2023-01-03T05:22:14.824Z,3.40
2023-01-03T05:25:24.447Z,3.10
2023-01-03T05:28:17.310Z,3.30
2023-01-03T05:31:06.395Z,3.20
2023-01-03T05:33:54.891Z,3.33
2023-01-03T05:36:43.390Z,3.70
2023-01-03T05:39:31.886Z,3.70
2023-01-03T05:42:21.671Z,4.43
2023-01-03T05:45:11.100Z,3.83
2023-01-03T05:47:59.732Z,4.03
2023-01-03T05:50:49.745Z,4.90
2023-01-03T05:53:38.213Z,4.60
2023-01-03T05:56:26.714Z,4.13
2023-01-03T05:59:16.584Z,4.63
2023-01-03T06:02:05.097Z,3.87
2023-01-03T06:04:53.733Z,3.77
2023-01-03T06:07:42.210Z,3.33
2023-01-03T06:10:30.685Z,3.73
2023-01-03T06:13:21.287Z,3.77
2023-01-03T06:16:30.394Z,3.23
2023-01-03T06:19:18.813Z,3.33
2023-01-03T06:22:10.891Z,4.20
2023-01-03T06:24:59.806Z,4.30
2023-01-03T06:27:48.238Z,4.27
2023-01-03T06:30:36.677Z,3.70
2023-01-03T06:33:26.481Z,3.50
2023-01-03T06:36:16.101Z,3.60
2023-01-03T06:39:04.804Z,3.60
2023-01-03T06:41:53.271Z,3.70
2023-01-03T06:44:41.771Z,3.63
2023-01-03T06:47:47.547Z,4.10
2023-01-03T06:50:57.505Z,4.03
2023-01-03T06:53:46.002Z,4.50
2023-01-03T06:56:34.516Z,3.80
2023-01-03T06:59:23.309Z,4.70
2023-01-03T07:02:11.890Z,4.77
2023-01-03T07:05:00.433Z,4.80
2023-01-03T07:07:50.305Z,4.50
2023-01-03T07:10:38.767Z,4.13
2023-01-03T07:13:41.142Z,3.97
2023-01-03T07:16:31.555Z,4.80
2023-01-03T07:19:20.887Z,4.73
2023-01-03T07:22:09.400Z,5.63
2023-01-03T07:24:59.180Z,4.73
2023-01-03T07:28:00.348Z,4.23
2023-01-03T07:30:52.173Z,4.70
2023-01-03T07:33:40.655Z,4.90
2023-01-03T07:36:29.121Z,3.80
2023-01-03T07:39:17.644Z,4.70
2023-01-03T07:42:33.444Z,5.27
2023-01-03T07:45:21.867Z,4.03
2023-01-03T07:48:10.947Z,4.00
2023-01-03T07:50:59.798Z,4.53
2023-01-03T07:53:50.863Z,4.73
2023-01-03T07:56:39.453Z,4.53
2023-01-03T07:59:29.318Z,5.20
2023-01-03T08:02:19.317Z,5.33
2023-01-03T08:05:08.500Z,4.17
2023-01-03T08:07:56.973Z,5.20
2023-01-03T08:11:02.741Z,4.70
2023-01-03T08:13:51.472Z,4.80
2023-01-03T08:16:41.375Z,5.20
2023-01-03T08:19:30.141Z,4.70
2023-01-03T08:22:18.595Z,8.30
2023-01-03T08:25:07.417Z,7.70
2023-01-03T08:27:58.735Z,5.10
2023-01-03T08:30:48.867Z,5.70
2023-01-03T08:33:42.905Z,6.80
2023-01-03T08:36:34.843Z,6.17
2023-01-03T08:39:26.127Z,5.10
2023-01-03T08:42:16.682Z,5.70
2023-01-03T08:45:08.193Z,5.37
2023-01-03T08:47:58.467Z,5.47
2023-01-03T08:50:48.545Z,5.97
2023-01-03T08:53:37.065Z,6.37
2023-01-03T08:56:25.549Z,7.23
2023-01-03T08:59:14.039Z,7.03
2023-01-03T09:02:03.162Z,7.27
2023-01-03T09:04:51.785Z,7.47
2023-01-03T09:07:41.657Z,6.87
2023-01-03T09:10:30.341Z,7.60
2023-01-03T09:13:18.897Z,6.53
2023-01-03T09:16:09.404Z,7.20
2023-01-03T09:18:58.178Z,7.87
2023-01-03T09:21:46.637Z,7.03
2023-01-03T09:24:36.495Z,7.17
2023-01-03T09:27:24.905Z,6.50
2023-01-03T09:30:14.616Z,7.23
2023-01-03T09:33:03.159Z,8.00
2023-01-03T09:35:54.099Z,8.13
2023-01-03T09:38:42.667Z,7.37
2023-01-03T09:41:33.676Z,7.73
2023-01-03T09:44:22.165Z,8.90
2023-01-03T09:47:18.069Z,7.10
2023-01-03T09:53:37.837Z,7.73
2023-01-03T09:56:44.167Z,6.83
2023-01-03T09:59:55.125Z,6.93
2023-01-03T10:03:09.864Z,8.17
2023-01-03T10:06:12.867Z,8.07
2023-01-03T10:09:15.595Z,7.47
2023-01-03T10:12:16.165Z,6.20
2023-01-03T10:15:15.878Z,6.93
2023-01-03T10:18:15.107Z,6.00
2023-01-03T10:21:07.731Z,5.60
2023-01-03T10:23:56.271Z,5.60
2023-01-03T10:26:44.735Z,5.60
2023-01-03T10:29:33.188Z,5.17
2023-01-03T10:32:38.485Z,5.70
2023-01-03T10:35:30.297Z,5.50
2023-01-03T10:38:19.009Z,6.07
2023-01-03T10:41:16.818Z,6.43
2023-01-03T10:44:05.815Z,5.20
2023-01-03T10:46:55.805Z,5.40
2023-01-03T10:49:48.156Z,4.83
2023-01-03T10:52:39.208Z,4.90
2023-01-03T10:55:28.465Z,4.40
2023-01-03T10:58:22.010Z,3.80
2023-01-03T11:01:12.828Z,4.80
2023-01-03T11:04:09.970Z,4.47
2023-01-03T11:07:15.879Z,3.70
2023-01-03T11:10:04.620Z,3.17
2023-01-03T11:12:53.181Z,3.60
2023-01-03T11:15:41.638Z,3.20
2023-01-03T11:18:31.615Z,4.00
2023-01-03T11:21:25.645Z,3.30
2023-01-03T11:24:25.122Z,3.07
2023-01-03T11:27:21.429Z,2.87
2023-01-03T11:30:18.508Z,3.20
2023-01-03T11:33:24.060Z,2.87
2023-01-03T11:36:31.890Z,3.33
2023-01-03T11:39:43.890Z,3.77
2023-01-03T11:42:40.358Z,2.10
2023-01-03T11:45:46.500Z,2.60
2023-01-03T11:49:00.333Z,2.23
2023-01-03T11:51:57.882Z,2.53
2023-01-03T11:55:09.171Z,3.00
2023-01-03T11:58:07.337Z,3.00
2023-01-03T12:01:00.583Z,2.40
2023-01-03T12:04:03.752Z,2.40
2023-01-03T12:07:45.227Z,2.23
2023-01-03T12:10:17.561Z,2.67
2023-01-03T12:13:21.452Z,2.90
2023-01-03T12:16:15.518Z,2.30
2023-01-03T12:19:12.494Z,2.33
2023-01-03T12:22:05.161Z,2.20
2023-01-03T12:25:04.796Z,2.00
2023-01-03T12:27:58.290Z,2.50
2023-01-03T12:30:49.505Z,2.13
2023-01-03T12:33:42.807Z,2.13
2023-01-03T12:36:37.693Z,2.40
2023-01-03T12:39:34.556Z,1.90
2023-01-03T12:42:33.259Z,2.10
2023-01-03T12:45:34.849Z,2.50
2023-01-03T12:48:34.611Z,1.90
2023-01-03T12:51:24.630Z,2.20
2023-01-03T12:54:21.626Z,2.27
2023-01-03T12:57:42.227Z,2.17
2023-01-03T13:00:47.829Z,1.87
2023-01-03T13:03:40.128Z,2.63
2023-01-03T13:06:31.584Z,1.77
2023-01-03T13:09:24.080Z,1.50
2023-01-03T13:12:15.773Z,1.70
2023-01-03T13:15:14.990Z,1.60
2023-01-03T13:18:36.732Z,1.80
2023-01-03T13:22:02.399Z,1.90
2023-01-03T13:24:52.306Z,1.70
2023-01-03T13:27:49.426Z,2.00
2023-01-03T13:30:38.473Z,1.73
2023-01-03T13:33:26.992Z,1.73
2023-01-03T13:36:16.837Z,1.83
2023-01-03T13:39:33.546Z,2.27
2023-01-03T13:42:23.764Z,1.70
2023-01-03T13:45:54.876Z,1.87
2023-01-03T13:48:54.391Z,1.83
2023-01-03T13:51:53.981Z,1.90
2023-01-03T13:55:06.872Z,2.00
2023-01-03T13:57:55.365Z,1.70
2023-01-03T14:00:44.398Z,1.97
2023-01-03T14:03:48.849Z,1.50
2023-01-03T14:06:53.050Z,2.13
2023-01-03T14:10:14.814Z,1.60
2023-01-03T14:13:31.029Z,2.27
2023-01-03T14:16:27.587Z,1.53
2023-01-03T14:19:21.024Z,1.90
2023-01-03T14:22:30.348Z,2.10
2023-01-03T14:25:34.044Z,2.10
2023-01-03T14:28:24.391Z,1.80
2023-01-03T14:31:18.832Z,1.70
2023-01-03T14:34:11.446Z,1.73
2023-01-03T14:37:04.345Z,1.90
2023-01-03T14:39:55.282Z,2.23
2023-01-03T14:42:46.246Z,2.10
2023-01-03T14:45:34.776Z,2.30
2023-01-03T14:48:24.212Z,2.30
2023-01-03T14:51:12.715Z,2.13
2023-01-03T14:54:01.640Z,2.00
2023-01-03T14:56:51.505Z,1.90
2023-01-03T14:59:40.063Z,2.03
2023-01-03T15:02:29.661Z,1.70
2023-01-03T15:05:30.319Z,2.70
2023-01-03T15:08:23.262Z,2.20
2023-01-03T15:11:13.379Z,2.10
2023-01-03T15:14:04.702Z,2.00
2023-01-03T15:16:53.642Z,1.60
2023-01-03T15:19:48.696Z,2.00
2023-01-03T15:22:41.290Z,1.80
2023-01-03T15:25:35.603Z,1.80
2023-01-03T15:28:27.230Z,1.70
2023-01-03T15:31:30.047Z,1.70
2023-01-03T15:34:21.822Z,2.10
2023-01-03T15:37:14.655Z,2.40
2023-01-03T15:40:06.187Z,2.33
2023-01-03T15:43:12.316Z,2.13
2023-01-03T15:46:03.838Z,2.60
2023-01-03T15:48:56.927Z,2.33
2023-01-03T15:51:46.197Z,2.20
2023-01-03T15:54:34.736Z,3.77
2023-01-03T15:57:25.019Z,3.33
2023-01-03T16:00:17.959Z,3.37
2023-01-03T16:03:06.599Z,3.43
2023-01-03T16:05:56.605Z,4.27
2023-01-03T16:08:45.397Z,4.63
2023-01-03T16:11:34.756Z,5.13
2023-01-03T16:14:25.163Z,8.13
2023-01-03T16:17:24.113Z,8.00
2023-01-03T16:20:15.810Z,7.77
2023-01-03T16:23:05.693Z,8.03
2023-01-03T16:25:57.315Z,7.97
2023-01-03T16:28:45.844Z,8.50
2023-01-03T16:31:34.747Z,8.90
2023-01-03T16:34:28.798Z,5.73
2023-01-03T16:37:20.954Z,5.70
2023-01-03T16:40:15.113Z,6.70
2023-01-03T16:43:05.084Z,7.17
2023-01-03T16:45:54.525Z,7.83
2023-01-03T16:48:47.833Z,8.20
2023-01-03T16:51:39.496Z,8.20
2023-01-03T16:54:31.288Z,7.07
2023-01-03T16:57:22.479Z,8.77
2023-01-03T17:00:17.882Z,7.27
2023-01-03T17:03:06.528Z,8.77
2023-01-03T17:05:55.252Z,7.63
2023-01-03T17:08:44.028Z,9.90
2023-01-03T17:11:33.509Z,10.00
2023-01-03T17:14:23.826Z,11.20
2023-01-03T17:17:17.028Z,11.27
2023-01-03T17:20:15.046Z,11.60
2023-01-03T17:23:03.859Z,8.30
2023-01-03T17:25:52.591Z,6.97
2023-01-03T17:28:41.331Z,17.37
2023-01-03T17:31:32.897Z,14.97
2023-01-03T17:34:25.306Z,21.63
2023-01-03T17:37:16.742Z,15.57
2023-01-03T17:40:07.328Z,17.37
2023-01-03T17:42:58.380Z,9.63
2023-01-03T17:46:05.828Z,10.77
2023-01-03T17:49:13.386Z,10.73
2023-01-03T17:52:05.520Z,11.57
2023-01-03T17:54:55.173Z,10.43
2023-01-03T17:57:43.868Z,10.30
2023-01-03T18:00:39.455Z,12.17
2023-01-03T18:03:28.096Z,11.83
2023-01-03T18:06:22.004Z,14.20
2023-01-03T18:09:15.082Z,14.87
2023-01-03T18:12:03.618Z,12.97
2023-01-03T18:14:52.133Z,14.77
2023-01-03T18:17:40.658Z,16.27
2023-01-03T18:20:29.210Z,19.20
2023-01-03T18:23:21.564Z,16.70
2023-01-03T18:26:13.853Z,16.13
2023-01-03T18:29:02.418Z,17.50
2023-01-03T18:31:51.866Z,16.33
2023-01-03T18:34:40.496Z,15.90
2023-01-03T18:37:32.327Z,16.10
2023-01-03T18:40:26.321Z,16.30
2023-01-03T18:43:15.324Z,15.93
2023-01-03T18:46:04.935Z,14.67
2023-01-03T18:48:53.786Z,16.33
2023-01-03T18:51:42.385Z,14.60
2023-01-03T18:54:30.963Z,15.23
2023-01-03T18:57:20.944Z,16.40
2023-01-03T19:00:16.368Z,18.33
2023-01-03T19:03:15.846Z,17.20
2023-01-03T19:06:14.018Z,16.47
2023-01-03T19:09:05.225Z,16.80
2023-01-03T19:11:54.842Z,17.80
2023-01-03T19:14:49.823Z,16.53
2023-01-03T19:17:38.340Z,17.40
2023-01-03T19:20:27.484Z,15.83
2023-01-03T19:23:20.449Z,25.50
2023-01-03T19:26:25.175Z,22.40
2023-01-03T19:29:21.949Z,21.37
2023-01-03T19:32:17.240Z,18.23
2023-01-03T19:35:14.572Z,17.30
2023-01-03T19:38:03.050Z,16.77
2023-01-03T19:40:51.573Z,20.03
2023-01-03T19:43:40.343Z,22.57
2023-01-03T19:46:29.095Z,20.97
2023-01-03T19:49:19.551Z,16.43
2023-01-03T19:52:08.016Z,16.33
2023-01-03T19:54:56.473Z,15.30
2023-01-03T19:57:48.028Z,15.43
2023-01-03T20:00:37.096Z,16.20
2023-01-03T20:03:29.961Z,15.53
2023-01-03T20:06:19.977Z,13.90
2023-01-03T20:09:08.465Z,14.90
2023-01-03T20:11:56.997Z,14.17
2023-01-03T20:14:48.605Z,14.07
2023-01-03T20:17:37.330Z,17.77
2023-01-03T20:20:29.561Z,20.07
2023-01-03T20:23:19.632Z,15.87
2023-01-03T20:26:10.325Z,15.10
2023-01-03T20:28:59.919Z,17.60
2023-01-03T20:31:48.906Z,17.20
2023-01-03T20:34:37.774Z,20.60
2023-01-03T20:37:26.336Z,19.87
2023-01-03T20:40:18.007Z,17.43
2023-01-03T20:43:06.570Z,26.83
2023-01-03T20:45:57.128Z,17.87
2023-01-03T20:48:48.497Z,22.90
2023-01-03T20:51:36.991Z,16.93
2023-01-03T20:54:25.453Z,15.10
2023-01-03T20:57:20.652Z,14.13
2023-01-03T21:00:20.420Z,16.30
2023-01-03T21:03:09.164Z,14.20
2023-01-03T21:05:59.051Z,15.80
2023-01-03T21:08:57.769Z,14.20
2023-01-03T21:11:47.051Z,16.70
2023-01-03T21:14:37.044Z,16.00
2023-01-03T21:17:25.569Z,16.03
2023-01-03T21:20:16.196Z,21.57
2023-01-03T21:23:04.710Z,12.90
2023-01-03T21:25:56.067Z,13.67
2023-01-03T21:28:44.566Z,13.93
2023-01-03T21:31:35.191Z,12.57
2023-01-03T21:34:23.771Z,12.80
2023-01-03T21:37:12.276Z,13.20
2023-01-03T21:40:00.804Z,15.77
2023-01-03T21:43:05.063Z,14.07
2023-01-03T21:45:56.258Z,14.27
2023-01-03T21:48:46.570Z,12.50
2023-01-03T21:51:38.858Z,12.20
2023-01-03T21:54:27.817Z,12.67
2023-01-03T21:57:22.735Z,11.27
2023-01-03T22:00:12.939Z,10.60
2023-01-03T22:03:21.599Z,12.13
2023-01-03T22:06:13.554Z,13.80
2023-01-03T22:09:04.417Z,13.97
2023-01-03T22:11:53.587Z,11.70
2023-01-03T22:14:42.121Z,11.70
2023-01-03T22:17:30.574Z,12.87
2023-01-03T22:20:21.021Z,17.43
2023-01-03T22:23:12.096Z,13.33
2023-01-03T22:26:02.615Z,13.77
2023-01-03T22:28:51.120Z,10.60
2023-01-03T22:31:42.158Z,10.63
2023-01-03T22:34:30.720Z,9.33
2023-01-03T22:37:19.696Z,11.77
2023-01-03T22:40:12.912Z,9.60
2023-01-03T22:43:01.432Z,8.00
2023-01-03T22:45:49.921Z,8.27
2023-01-03T22:48:38.836Z,8.20
2023-01-03T22:51:27.333Z,8.20
2023-01-03T22:54:15.763Z,8.90
2023-01-03T22:57:05.791Z,9.60
2023-01-03T22:59:54.364Z,9.20
2023-01-03T23:02:42.918Z,9.47
2023-01-03T23:05:31.464Z,8.50
2023-01-03T23:08:20.002Z,8.40
2023-01-03T23:11:33.434Z,8.40
2023-01-03T23:14:26.647Z,8.20
2023-01-03T23:17:32.802Z,8.80
2023-01-03T23:20:21.319Z,9.23
2023-01-03T23:23:10.752Z,9.93
2023-01-03T23:26:01.778Z,10.50
2023-01-03T23:28:50.280Z,9.87
2023-01-03T23:31:40.163Z,10.27
2023-01-03T23:34:28.658Z,11.07
2023-01-03T23:37:17.136Z,11.37
2023-01-03T23:40:06.866Z,11.50
2023-01-03T23:42:55.376Z,10.63
2023-01-03T23:45:43.854Z,11.07
2023-01-03T23:48:33.879Z,11.93
2023-01-03T23:51:22.386Z,10.63
2023-01-03T23:54:11.147Z,10.53
2023-01-03T23:57:00.128Z,10.10
2023-01-03T23:59:48.583Z,10.13
